Saturday, February 24, 2018, 4:57 AM EST
Back to Local

KFYJ, West Point, Middle Peninsula Regional Airport

Location: Shacklefords, VA, United States Lat: 37.521
Local Time: 4:57 AM EST ( 9:57 GMT) Lon: -76.764
Time Zone: US/Eastern Elev: 22 ft

Show me the last for .
Show Decoded

2018-02-24 04:35 METAR KFYJ 240935Z AUTO 20003KT 3/4SM OVC002 12/11 A3021 RMK AO2 T01160112 =
2018-02-24 04:15 METAR KFYJ 240915Z AUTO 17005KT 1/2SM OVC002 12/11 A3020 RMK AO2 T01150111 =
2018-02-24 03:55 METAR KFYJ 240855Z AUTO 17004KT 1/4SM OVC002 11/11 A3021 RMK AO2 T01100106 =
2018-02-24 03:35 METAR KFYJ 240835Z AUTO 00000KT 1/4SM OVC002 11/11 A3023 RMK AO2 T01080105 =
2018-02-24 03:15 METAR KFYJ 240815Z AUTO 16003KT 1/2SM OVC002 11/10 A3022 RMK AO2 T01060102 =
2018-02-24 02:55 METAR KFYJ 240755Z AUTO 16003KT 3/4SM OVC002 11/10 A3023 RMK AO2 T01050101 =
2018-02-24 02:35 METAR KFYJ 240735Z AUTO 17004KT 1 1/4SM OVC004 11/10 A3024 RMK AO2 T01050100 =
2018-02-24 02:15 METAR KFYJ 240715Z AUTO 16003KT 5SM OVC006 10/10 A3024 RMK AO2 T01040100 =
2018-02-24 01:55 METAR KFYJ 240655Z AUTO 15003KT 5SM SCT001 OVC008 10/10 A3025 RMK AO2 T01020098
                 =
2018-02-24 01:35 METAR KFYJ 240635Z AUTO 00000KT 2 1/2SM OVC010 10/10 A3026 RMK AO2 T01010097 =
2018-02-24 01:15 METAR KFYJ 240615Z AUTO 00000KT 1/2SM BKN001 OVC010 10/10 A3027 RMK AO2
                 T01000096 =
2018-02-24 00:55 METAR KFYJ 240555Z AUTO 00000KT 1/2SM OVC001 10/10 A3028 RMK AO2 T01000095 10105
                 20100 401050055 =
2018-02-24 00:35 METAR KFYJ 240535Z AUTO 00000KT 1/2SM OVC001 10/10 A3028 RMK AO2 T01000095 =
2018-02-24 00:15 METAR KFYJ 240515Z AUTO 00000KT 1SM OVC001 10/10 A3029 RMK AO2 T01000095 =
2018-02-23 23:55 METAR KFYJ 240455Z AUTO 00000KT 2SM OVC003 10/10 A3029 RMK AO2 T01000095 =
2018-02-23 23:35 METAR KFYJ 240435Z AUTO 00000KT 4SM OVC003 10/10 A3030 RMK AO2 T01010095 =
2018-02-23 23:15 METAR KFYJ 240415Z AUTO 21004KT 5SM OVC003 10/10 A3032 RMK AO2 T01020095 =
2018-02-23 22:55 METAR KFYJ 240355Z AUTO 19003KT 7SM OVC005 10/10 A3032 RMK AO2 T01020095 =
2018-02-23 22:35 METAR KFYJ 240335Z AUTO 18004KT 7SM OVC005 10/09 A3033 RMK AO2 T01020093 =
2018-02-23 22:20 METAR KFYJ 240320Z AUTO 19003KT 7SM OVC005 10/09 A3033 RMK AO2 T01020093 =
2018-02-23 21:55 METAR KFYJ 240255Z AUTO 21004KT 10SM OVC005 10/09 A3034 RMK AO2 T01030092 =
2018-02-23 21:35 METAR KFYJ 240235Z AUTO 22005KT 10SM OVC007 10/09 A3034 RMK AO2 T01030090 =
2018-02-23 21:15 METAR KFYJ 240215Z AUTO 22005KT 10SM OVC007 11/09 A3034 RMK AO2 T01050090 =
2018-02-23 20:55 METAR KFYJ 240155Z AUTO 20005KT 10SM OVC007 11/09 A3035 RMK AO2 T01050091 =
2018-02-23 20:35 METAR KFYJ 240135Z AUTO 21003KT 10SM OVC007 11/09 A3036 RMK AO2 T01050090 =
2018-02-23 20:15 METAR KFYJ 240115Z AUTO 22004KT 10SM OVC007 11/09 A3036 RMK AO2 T01050090 =
2018-02-23 19:55 METAR KFYJ 240055Z AUTO 00000KT 10SM OVC007 10/09 A3035 RMK AO2 T01030088 =
2018-02-23 19:35 METAR KFYJ 240035Z AUTO 20003KT 10SM OVC007 10/09 A3035 RMK AO2 T01020088 =
2018-02-23 19:15 METAR KFYJ 240015Z AUTO 21003KT 10SM OVC007 10/09 A3035 RMK AO2 T01020090 =
2018-02-23 18:55 METAR KFYJ 232355Z AUTO 20004KT 10SM OVC007 10/09 A3035 RMK AO2 T01010087 10102
                 20088 =
2018-02-23 18:35 METAR KFYJ 232335Z AUTO 18004KT 10SM OVC007 10/09 A3036 RMK AO2 T01020087 =
2018-02-23 18:15 METAR KFYJ 232315Z AUTO 18006KT 10SM OVC009 10/09 A3037 RMK AO2 T01000085 =
2018-02-23 17:55 METAR KFYJ 232255Z AUTO 17006KT 10SM OVC009 10/09 A3037 RMK AO2 T01000085 =
2018-02-23 17:35 METAR KFYJ 232235Z AUTO 18004KT 10SM OVC009 10/09 A3039 RMK AO2 T01010085 =
2018-02-23 17:15 METAR KFYJ 232215Z AUTO 18003KT 10SM OVC009 10/08 A3039 RMK AO2 T01000083 =
2018-02-23 16:55 METAR KFYJ 232155Z AUTO 00000KT 10SM OVC007 10/08 A3040 RMK AO2 T01000082 =
2018-02-23 16:35 METAR KFYJ 232135Z AUTO 00000KT 10SM OVC007 10/08 A3041 RMK AO2 T00970081 =
2018-02-23 16:15 METAR KFYJ 232115Z AUTO 00000KT 10SM OVC007 10/08 A3041 RMK AO2 T00970080 =
2018-02-23 15:55 METAR KFYJ 232055Z AUTO 17003KT 10SM OVC007 10/08 A3042 RMK AO2 T00960080 =
2018-02-23 15:40 METAR KFYJ 232040Z AUTO 20003KT 10SM OVC007 10/08 A3042 RMK AO2 T00960079 =
2018-02-23 15:15 METAR KFYJ 232015Z AUTO 00000KT 7SM OVC007 10/08 A3043 RMK AO2 T00950079 =
2018-02-23 14:55 METAR KFYJ 231955Z AUTO 00000KT 7SM OVC007 09/08 A3044 RMK AO2 T00930077 =
2018-02-23 14:35 METAR KFYJ 231935Z AUTO 28003KT 5SM OVC007 09/08 A3045 RMK AO2 T00930079 =
2018-02-23 14:15 METAR KFYJ 231915Z AUTO 27005KT 10SM OVC007 09/08 A3046 RMK AO2 T00940078 =
2018-02-23 13:55 METAR KFYJ 231855Z AUTO 29003KT 5SM OVC007 09/08 A3046 RMK AO2 T00910077 =
2018-02-23 13:35 METAR KFYJ 231835Z AUTO 26004KT 4SM OVC007 09/08 A3046 RMK AO2 T00880075 =
2018-02-23 13:15 METAR KFYJ 231815Z AUTO 24005KT 3SM OVC007 09/08 A3047 RMK AO2 T00900079 =
2018-02-23 13:00 METAR KFYJ 231800Z AUTO 23005KT 5SM OVC007 09/08 A3048 RMK AO2 T00900076 =
2018-02-23 12:35 METAR KFYJ 231735Z AUTO 00000KT 10SM OVC007 09/07 A3049 RMK AO2 T00880072 =
2018-02-23 12:15 METAR KFYJ 231715Z AUTO 00000KT 10SM OVC007 09/07 A3050 RMK AO2 T00860070 =
2018-02-23 11:55 METAR KFYJ 231655Z AUTO 00000KT 7SM OVC005 09/07 A3051 RMK AO2 T00850071 =
2018-02-23 11:35 METAR KFYJ 231635Z AUTO 00000KT 4SM OVC005 08/07 A3052 RMK AO2 T00830073 =
2018-02-23 11:15 METAR KFYJ 231615Z AUTO 00000KT 3SM OVC005 08/07 A3054 RMK AO2 T00780068 =
2018-02-23 10:55 METAR KFYJ 231555Z AUTO 00000KT 2SM OVC005 08/07 A3055 RMK AO2 T00750065 =
2018-02-23 10:35 METAR KFYJ 231535Z AUTO 36003KT 4SM OVC005 07/06 A3055 RMK AO2 T00730063 =
2018-02-23 10:15 METAR KFYJ 231515Z AUTO 03003KT 10SM OVC005 08/07 A3056 RMK AO2 T00760067 =
2018-02-23 09:55 METAR KFYJ 231455Z AUTO 00000KT 2 1/2SM OVC005 07/07 A3056 RMK AO2 T00720065 =
2018-02-23 09:35 METAR KFYJ 231435Z AUTO 00000KT 2 1/2SM OVC005 07/06 A3057 RMK AO2 T00680060 =
2018-02-23 09:15 METAR KFYJ 231415Z AUTO 36003KT 2SM OVC005 07/06 A3058 RMK AO2 T00670060 =
2018-02-23 08:55 METAR KFYJ 231355Z AUTO 00000KT 2SM OVC005 07/06 A3058 RMK AO2 T00650058 =
2018-02-23 08:35 METAR KFYJ 231335Z AUTO 00000KT 1 3/4SM OVC003 06/06 A3058 RMK AO2 T00630056 =
2018-02-23 08:15 METAR KFYJ 231315Z AUTO 35003KT 1SM OVC003 06/06 A3058 RMK AO2 T00620056 =
2018-02-23 07:55 METAR KFYJ 231255Z AUTO 00000KT 1 1/4SM OVC005 06/06 A3058 RMK AO2 T00620056 =
2018-02-23 07:35 METAR KFYJ 231235Z AUTO 00000KT 1 1/2SM OVC005 06/06 A3058 RMK AO2 T00600055 =
2018-02-23 07:15 METAR KFYJ 231215Z AUTO 36003KT 2SM OVC005 06/06 A3057 RMK AO2 T00600055 =
2018-02-23 06:55 METAR KFYJ 231155Z AUTO 00000KT 3SM OVC005 06/05 A3056 RMK AO2 T00590053 10068
                 20055 =
2018-02-23 06:35 METAR KFYJ 231135Z AUTO 00000KT 2 1/2SM OVC005 06/05 A3056 RMK AO2 T00580052 =
2018-02-23 06:15 METAR KFYJ 231115Z AUTO 00000KT 2 1/2SM OVC005 06/05 A3056 RMK AO2 T00570050 =
2018-02-23 05:55 METAR KFYJ 231055Z AUTO 03003KT 3SM OVC005 06/05 A3056 RMK AO2 T00570050 =
2018-02-23 05:35 METAR KFYJ 231035Z AUTO 05003KT 3SM OVC005 06/05 A3057 RMK AO2 T00570050 =
2018-02-23 05:15 METAR KFYJ 231015Z AUTO 00000KT 3SM OVC005 06/05 A3057 RMK AO2 T00570050 =

Support USWX by starting your Amazon purchase here.